Terminal Aerodrome Forecast
Issued by NWS

Home | Current Version | Previous Version | Text Only | Print | Product List | Glossary On
Versions: 1 2 3 4 5 6 7 8 9 10 11 12 13 14 15 16
852
FTUS42 KJAX 302326
TAFVQQ
TAF
KVQQ 302326Z 3100/3124 VRB04KT P6SM SCT090 BKN250
     FM310500 00000KT P6SM FEW150 SCT250
     FM311500 23004KT P6SM SCT025 BKN200
     FM311900 14010G15KT P6SM VCTS SCT035CB BKN050 PROB30 3119/3122
      -TSRA BKN035CB=

USA.gov is the U.S. government's official web portal to all federal, state and local government web resources and services.